Carolina Beach, North Carolina
Current Conditions -  °F | °C
As of 1:55 PM on Friday 21 Nov 2014 (Local Time) from KSUT Reporting Station
Clear Clear  
Wind Chill: 13°   Ceiling: Unl
Heat Index: 13°   Visibility: 10mi
Dew Point: -4°   Wind: 9mph
Humidity: 29%   Direction: 30°NNE
Pressure: 30.38"   Gusts: NA
Location:  34.04°N, 77.89°W
Report Text: KSUT 211855Z AUTO 03008KT 010V070 10SM CLR 13/M04 A3038 RMK AO2 T01341044
Loading
Personal Weather Stations






























Interactive Weather Map New forecast layout! Learn more

10-Day Weather Forecast

Advertisements
Track Severe Weather on mobile